sensor_id;sensor_type;location;lat;lon;timestamp;P1;durP1;ratioP1;P2;durP2;ratioP2
50104;SDS011;47690;39.202;-77.198;2023-08-20T00:02:13;5.95;;;3.80;;
50104;SDS011;47690;39.202;-77.198;2023-08-20T00:04:45;5.18;;;3.97;;
50104;SDS011;47690;39.202;-77.198;2023-08-20T00:07:19;4.85;;;4.00;;
50104;SDS011;47690;39.202;-77.198;2023-08-20T00:09:49;5.47;;;4.35;;
50104;SDS011;47690;39.202;-77.198;2023-08-20T00:12:18;4.65;;;3.90;;
50104;SDS011;47690;39.202;-77.198;2023-08-20T00:14:56;4.97;;;3.90;;
50104;SDS011;47690;39.202;-77.198;2023-08-20T00:17:38;4.22;;;3.65;;
50104;SDS011;47690;39.202;-77.198;2023-08-20T00:20:09;5.32;;;4.28;;
50104;SDS011;47690;39.202;-77.198;2023-08-20T00:22:45;5.70;;;4.47;;
50104;SDS011;47690;39.202;-77.198;2023-08-20T00:25:15;4.53;;;4.00;;
50104;SDS011;47690;39.202;-77.198;2023-08-20T00:27:47;4.97;;;4.07;;
50104;SDS011;47690;39.202;-77.198;2023-08-20T00:30:16;5.38;;;4.28;;
50104;SDS011;47690;39.202;-77.198;2023-08-20T00:32:46;6.72;;;4.70;;
50104;SDS011;47690;39.202;-77.198;2023-08-20T00:35:17;5.10;;;4.18;;
50104;SDS011;47690;39.202;-77.198;2023-08-20T00:37:47;5.80;;;4.43;;
50104;SDS011;47690;39.202;-77.198;2023-08-20T00:40:16;6.13;;;4.60;;
50104;SDS011;47690;39.202;-77.198;2023-08-20T00:42:46;5.30;;;4.45;;
50104;SDS011;47690;39.202;-77.198;2023-08-20T00:45:18;5.47;;;4.20;;
50104;SDS011;47690;39.202;-77.198;2023-08-20T00:47:49;5.28;;;4.07;;
50104;SDS011;47690;39.202;-77.198;2023-08-20T00:50:20;5.38;;;4.28;;
50104;SDS011;47690;39.202;-77.198;2023-08-20T00:52:52;4.63;;;4.05;;
50104;SDS011;47690;39.202;-77.198;2023-08-20T00:55:22;5.22;;;4.15;;
50104;SDS011;47690;39.202;-77.198;2023-08-20T00:57:52;4.60;;;3.90;;
50104;SDS011;47690;39.202;-77.198;2023-08-20T01:00:23;6.13;;;4.75;;
50104;SDS011;47690;39.202;-77.198;2023-08-20T01:02:53;5.00;;;4.07;;
50104;SDS011;47690;39.202;-77.198;2023-08-20T01:05:29;6.17;;;4.90;;
50104;SDS011;47690;39.202;-77.198;2023-08-20T01:11:18;5.80;;;4.10;;
50104;SDS011;47690;39.202;-77.198;2023-08-20T01:13:55;5.45;;;4.53;;
50104;SDS011;47690;39.202;-77.198;2023-08-20T01:16:37;5.88;;;4.40;;
50104;SDS011;47690;39.202;-77.198;2023-08-20T01:25:00;5.55;;;4.05;;
50104;SDS011;47690;39.202;-77.198;2023-08-20T01:30:15;5.72;;;4.57;;
50104;SDS011;47690;39.202;-77.198;2023-08-20T01:33:04;5.10;;;4.22;;
50104;SDS011;47690;39.202;-77.198;2023-08-20T01:35:52;5.38;;;4.18;;
50104;SDS011;47690;39.202;-77.198;2023-08-20T01:38:51;5.10;;;4.28;;
50104;SDS011;47690;39.202;-77.198;2023-08-20T01:41:52;5.70;;;4.25;;
50104;SDS011;47690;39.202;-77.198;2023-08-20T01:44:44;6.22;;;4.30;;
50104;SDS011;47690;39.202;-77.198;2023-08-20T01:47:18;5.28;;;4.38;;
50104;SDS011;47690;39.202;-77.198;2023-08-20T01:50:12;5.32;;;4.32;;
50104;SDS011;47690;39.202;-77.198;2023-08-20T01:53:06;4.90;;;3.88;;
50104;SDS011;47690;39.202;-77.198;2023-08-20T01:55:57;5.68;;;4.00;;
50104;SDS011;47690;39.202;-77.198;2023-08-20T01:58:44;5.03;;;4.32;;
50104;SDS011;47690;39.202;-77.198;2023-08-20T02:01:29;4.90;;;3.72;;
50104;SDS011;47690;39.202;-77.198;2023-08-20T02:04:17;6.30;;;4.07;;
50104;SDS011;47690;39.202;-77.198;2023-08-20T02:07:17;4.57;;;3.95;;
50104;SDS011;47690;39.202;-77.198;2023-08-20T02:10:10;5.40;;;4.32;;
50104;SDS011;47690;39.202;-77.198;2023-08-20T02:12:52;7.15;;;4.70;;
50104;SDS011;47690;39.202;-77.198;2023-08-20T02:15:32;7.45;;;4.30;;
50104;SDS011;47690;39.202;-77.198;2023-08-20T02:18:16;5.33;;;4.23;;
50104;SDS011;47690;39.202;-77.198;2023-08-20T02:21:12;5.32;;;4.40;;
50104;SDS011;47690;39.202;-77.198;2023-08-20T02:23:45;5.85;;;4.72;;
50104;SDS011;47690;39.202;-77.198;2023-08-20T02:26:47;7.03;;;4.50;;
50104;SDS011;47690;39.202;-77.198;2023-08-20T02:29:52;5.28;;;4.47;;
50104;SDS011;47690;39.202;-77.198;2023-08-20T02:32:50;5.18;;;4.25;;
50104;SDS011;47690;39.202;-77.198;2023-08-20T02:36:05;5.20;;;4.28;;
50104;SDS011;47690;39.202;-77.198;2023-08-20T02:39:23;4.93;;;3.92;;
50104;SDS011;47690;39.202;-77.198;2023-08-20T02:42:12;5.95;;;4.38;;
50104;SDS011;47690;39.202;-77.198;2023-08-20T02:45:19;5.20;;;4.13;;
50104;SDS011;47690;39.202;-77.198;2023-08-20T02:48:11;5.55;;;4.57;;
50104;SDS011;47690;39.202;-77.198;2023-08-20T02:50:54;5.50;;;4.47;;
50104;SDS011;47690;39.202;-77.198;2023-08-20T02:53:53;6.18;;;4.30;;
50104;SDS011;47690;39.202;-77.198;2023-08-20T02:56:44;5.10;;;4.18;;
50104;SDS011;47690;39.202;-77.198;2023-08-20T02:59:22;6.18;;;4.72;;
50104;SDS011;47690;39.202;-77.198;2023-08-20T03:02:21;5.75;;;4.47;;
50104;SDS011;47690;39.202;-77.198;2023-08-20T03:05:24;5.95;;;4.80;;
50104;SDS011;47690;39.202;-77.198;2023-08-20T03:08:13;5.68;;;4.30;;
50104;SDS011;47690;39.202;-77.198;2023-08-20T03:11:49;6.10;;;4.53;;
50104;SDS011;47690;39.202;-77.198;2023-08-20T03:15:09;5.38;;;4.18;;
50104;SDS011;47690;39.202;-77.198;2023-08-20T03:17:53;5.00;;;4.20;;
50104;SDS011;47690;39.202;-77.198;2023-08-20T03:20:35;5.35;;;4.53;;
50104;SDS011;47690;39.202;-77.198;2023-08-20T03:23:12;5.13;;;4.07;;
50104;SDS011;47690;39.202;-77.198;2023-08-20T03:25:56;7.88;;;4.30;;
50104;SDS011;47690;39.202;-77.198;2023-08-20T03:28:44;5.15;;;3.95;;
50104;SDS011;47690;39.202;-77.198;2023-08-20T03:31:27;5.40;;;4.28;;
50104;SDS011;47690;39.202;-77.198;2023-08-20T03:34:21;5.32;;;4.18;;
50104;SDS011;47690;39.202;-77.198;2023-08-20T03:37:17;6.25;;;4.25;;
50104;SDS011;47690;39.202;-77.198;2023-08-20T03:40:23;5.18;;;4.10;;
50104;SDS011;47690;39.202;-77.198;2023-08-20T03:43:23;5.37;;;3.97;;
50104;SDS011;47690;39.202;-77.198;2023-08-20T03:49:14;4.63;;;3.90;;
50104;SDS011;47690;39.202;-77.198;2023-08-20T03:51:59;5.45;;;4.35;;
50104;SDS011;47690;39.202;-77.198;2023-08-20T03:54:41;5.28;;;3.97;;
50104;SDS011;47690;39.202;-77.198;2023-08-20T03:57:17;6.10;;;4.63;;
50104;SDS011;47690;39.202;-77.198;2023-08-20T03:59:50;5.53;;;4.20;;
50104;SDS011;47690;39.202;-77.198;2023-08-20T04:02:35;5.57;;;4.28;;
50104;SDS011;47690;39.202;-77.198;2023-08-20T04:05:15;6.15;;;4.25;;
50104;SDS011;47690;39.202;-77.198;2023-08-20T04:07:50;5.55;;;4.60;;
50104;SDS011;47690;39.202;-77.198;2023-08-20T04:10:28;6.43;;;4.68;;
50104;SDS011;47690;39.202;-77.198;2023-08-20T04:13:04;6.30;;;5.00;;
50104;SDS011;47690;39.202;-77.198;2023-08-20T04:15:40;4.95;;;4.05;;
50104;SDS011;47690;39.202;-77.198;2023-08-20T04:18:21;6.43;;;4.60;;
50104;SDS011;47690;39.202;-77.198;2023-08-20T04:21:04;5.43;;;4.03;;
50104;SDS011;47690;39.202;-77.198;2023-08-20T04:23:39;5.68;;;4.40;;
50104;SDS011;47690;39.202;-77.198;2023-08-20T04:26:16;5.40;;;4.30;;
50104;SDS011;47690;39.202;-77.198;2023-08-20T04:28:50;5.18;;;4.20;;
50104;SDS011;47690;39.202;-77.198;2023-08-20T04:31:32;5.22;;;4.38;;
50104;SDS011;47690;39.202;-77.198;2023-08-20T04:37:00;6.00;;;3.88;;
50104;SDS011;47690;39.202;-77.198;2023-08-20T04:39:37;5.53;;;4.32;;
50104;SDS011;47690;39.202;-77.198;2023-08-20T04:42:11;6.00;;;4.50;;
50104;SDS011;47690;39.202;-77.198;2023-08-20T04:44:42;5.18;;;4.18;;
50104;SDS011;47690;39.202;-77.198;2023-08-20T04:47:16;6.43;;;4.70;;
50104;SDS011;47690;39.202;-77.198;2023-08-20T04:49:48;6.13;;;4.43;;
50104;SDS011;47690;39.202;-77.198;2023-08-20T04:52:20;5.25;;;4.20;;
50104;SDS011;47690;39.202;-77.198;2023-08-20T04:54:51;5.40;;;4.53;;
50104;SDS011;47690;39.202;-77.198;2023-08-20T04:57:24;4.95;;;3.90;;
50104;SDS011;47690;39.202;-77.198;2023-08-20T05:02:49;4.88;;;3.85;;
50104;SDS011;47690;39.202;-77.198;2023-08-20T05:05:21;5.85;;;4.38;;
50104;SDS011;47690;39.202;-77.198;2023-08-20T05:07:54;6.50;;;4.75;;
50104;SDS011;47690;39.202;-77.198;2023-08-20T05:10:31;5.78;;;4.63;;
50104;SDS011;47690;39.202;-77.198;2023-08-20T05:13:05;6.03;;;4.57;;
50104;SDS011;47690;39.202;-77.198;2023-08-20T05:15:41;5.75;;;4.60;;
50104;SDS011;47690;39.202;-77.198;2023-08-20T05:18:13;4.97;;;4.13;;
50104;SDS011;47690;39.202;-77.198;2023-08-20T05:20:47;5.82;;;4.70;;
50104;SDS011;47690;39.202;-77.198;2023-08-20T05:23:19;6.40;;;4.80;;
50104;SDS011;47690;39.202;-77.198;2023-08-20T05:25:52;5.95;;;4.68;;
50104;SDS011;47690;39.202;-77.198;2023-08-20T05:28:28;5.32;;;4.07;;
50104;SDS011;47690;39.202;-77.198;2023-08-20T05:31:08;5.88;;;4.55;;
50104;SDS011;47690;39.202;-77.198;2023-08-20T05:33:44;5.05;;;4.07;;
50104;SDS011;47690;39.202;-77.198;2023-08-20T05:36:14;5.90;;;4.55;;
50104;SDS011;47690;39.202;-77.198;2023-08-20T05:41:19;5.05;;;3.83;;
50104;SDS011;47690;39.202;-77.198;2023-08-20T05:43:50;6.20;;;4.15;;
50104;SDS011;47690;39.202;-77.198;2023-08-20T05:46:22;6.00;;;4.28;;
50104;SDS011;47690;39.202;-77.198;2023-08-20T05:49:04;5.10;;;4.28;;
50104;SDS011;47690;39.202;-77.198;2023-08-20T05:51:42;7.22;;;4.50;;
50104;SDS011;47690;39.202;-77.198;2023-08-20T05:54:14;4.90;;;4.03;;
50104;SDS011;47690;39.202;-77.198;2023-08-20T05:56:53;5.05;;;3.85;;
50104;SDS011;47690;39.202;-77.198;2023-08-20T05:59:29;5.47;;;4.22;;
50104;SDS011;47690;39.202;-77.198;2023-08-20T06:02:15;6.25;;;4.45;;
50104;SDS011;47690;39.202;-77.198;2023-08-20T06:04:54;4.82;;;4.10;;
50104;SDS011;47690;39.202;-77.198;2023-08-20T06:07:27;6.13;;;4.68;;
50104;SDS011;47690;39.202;-77.198;2023-08-20T06:09:57;8.02;;;4.60;;
50104;SDS011;47690;39.202;-77.198;2023-08-20T06:12:41;6.57;;;4.40;;
50104;SDS011;47690;39.202;-77.198;2023-08-20T06:15:14;7.30;;;4.90;;
50104;SDS011;47690;39.202;-77.198;2023-08-20T06:17:47;5.43;;;4.40;;
50104;SDS011;47690;39.202;-77.198;2023-08-20T06:20:19;6.55;;;4.40;;
50104;SDS011;47690;39.202;-77.198;2023-08-20T06:22:56;5.35;;;4.00;;
50104;SDS011;47690;39.202;-77.198;2023-08-20T06:25:28;5.47;;;4.00;;
50104;SDS011;47690;39.202;-77.198;2023-08-20T06:28:11;5.68;;;4.13;;
50104;SDS011;47690;39.202;-77.198;2023-08-20T06:30:49;4.63;;;3.75;;
50104;SDS011;47690;39.202;-77.198;2023-08-20T06:33:21;5.60;;;4.60;;
50104;SDS011;47690;39.202;-77.198;2023-08-20T06:35:51;5.93;;;4.55;;
50104;SDS011;47690;39.202;-77.198;2023-08-20T06:38:28;5.25;;;4.10;;
50104;SDS011;47690;39.202;-77.198;2023-08-20T06:41:02;6.28;;;4.45;;
50104;SDS011;47690;39.202;-77.198;2023-08-20T06:43:37;5.65;;;4.25;;
50104;SDS011;47690;39.202;-77.198;2023-08-20T06:46:12;5.28;;;4.25;;
50104;SDS011;47690;39.202;-77.198;2023-08-20T06:48:48;5.03;;;4.15;;
50104;SDS011;47690;39.202;-77.198;2023-08-20T06:51:21;4.78;;;4.13;;
50104;SDS011;47690;39.202;-77.198;2023-08-20T06:53:53;5.90;;;4.30;;
50104;SDS011;47690;39.202;-77.198;2023-08-20T06:56:32;5.60;;;4.78;;
50104;SDS011;47690;39.202;-77.198;2023-08-20T06:59:09;5.70;;;4.22;;
50104;SDS011;47690;39.202;-77.198;2023-08-20T07:01:47;6.40;;;4.72;;
50104;SDS011;47690;39.202;-77.198;2023-08-20T07:05:13;5.70;;;4.15;;
50104;SDS011;47690;39.202;-77.198;2023-08-20T07:08:09;5.60;;;4.30;;
50104;SDS011;47690;39.202;-77.198;2023-08-20T07:10:55;4.63;;;3.88;;
50104;SDS011;47690;39.202;-77.198;2023-08-20T07:13:50;4.80;;;3.80;;
50104;SDS011;47690;39.202;-77.198;2023-08-20T07:16:48;4.72;;;3.80;;
50104;SDS011;47690;39.202;-77.198;2023-08-20T07:19:28;4.60;;;3.67;;
50104;SDS011;47690;39.202;-77.198;2023-08-20T07:22:37;5.72;;;3.78;;
50104;SDS011;47690;39.202;-77.198;2023-08-20T07:25:32;4.95;;;3.90;;
50104;SDS011;47690;39.202;-77.198;2023-08-20T07:28:09;5.47;;;4.07;;
50104;SDS011;47690;39.202;-77.198;2023-08-20T07:31:09;5.38;;;4.30;;
50104;SDS011;47690;39.202;-77.198;2023-08-20T07:34:04;5.15;;;4.35;;
50104;SDS011;47690;39.202;-77.198;2023-08-20T07:36:49;4.80;;;4.03;;
50104;SDS011;47690;39.202;-77.198;2023-08-20T07:39:26;5.43;;;4.30;;
50104;SDS011;47690;39.202;-77.198;2023-08-20T07:42:03;5.97;;;4.15;;
50104;SDS011;47690;39.202;-77.198;2023-08-20T07:44:50;5.72;;;4.82;;
50104;SDS011;47690;39.202;-77.198;2023-08-20T07:47:57;5.47;;;4.18;;
50104;SDS011;47690;39.202;-77.198;2023-08-20T07:50:54;5.47;;;4.50;;
50104;SDS011;47690;39.202;-77.198;2023-08-20T07:53:54;6.03;;;4.50;;
50104;SDS011;47690;39.202;-77.198;2023-08-20T07:56:46;4.97;;;4.10;;
50104;SDS011;47690;39.202;-77.198;2023-08-20T07:59:24;6.18;;;4.78;;
50104;SDS011;47690;39.202;-77.198;2023-08-20T08:02:13;4.80;;;3.85;;
50104;SDS011;47690;39.202;-77.198;2023-08-20T08:04:50;5.85;;;4.40;;
50104;SDS011;47690;39.202;-77.198;2023-08-20T08:07:45;5.47;;;4.32;;
50104;SDS011;47690;39.202;-77.198;2023-08-20T08:11:16;5.75;;;4.40;;
50104;SDS011;47690;39.202;-77.198;2023-08-20T08:14:03;5.60;;;4.35;;
50104;SDS011;47690;39.202;-77.198;2023-08-20T08:17:12;5.30;;;3.95;;
50104;SDS011;47690;39.202;-77.198;2023-08-20T08:20:18;6.07;;;4.25;;
50104;SDS011;47690;39.202;-77.198;2023-08-20T08:23:16;6.90;;;4.65;;
50104;SDS011;47690;39.202;-77.198;2023-08-20T08:25:58;6.65;;;4.43;;
50104;SDS011;47690;39.202;-77.198;2023-08-20T08:28:52;4.43;;;3.90;;
50104;SDS011;47690;39.202;-77.198;2023-08-20T08:31:28;5.97;;;4.30;;
50104;SDS011;47690;39.202;-77.198;2023-08-20T08:34:06;4.97;;;4.00;;
50104;SDS011;47690;39.202;-77.198;2023-08-20T08:40:27;6.38;;;4.28;;
50104;SDS011;47690;39.202;-77.198;2023-08-20T08:43:35;5.70;;;4.43;;
50104;SDS011;47690;39.202;-77.198;2023-08-20T08:46:23;6.38;;;4.25;;
50104;SDS011;47690;39.202;-77.198;2023-08-20T08:49:20;5.78;;;4.55;;
50104;SDS011;47690;39.202;-77.198;2023-08-20T08:51:54;6.40;;;4.80;;
50104;SDS011;47690;39.202;-77.198;2023-08-20T08:54:52;6.85;;;4.70;;
50104;SDS011;47690;39.202;-77.198;2023-08-20T08:58:20;6.07;;;4.50;;
50104;SDS011;47690;39.202;-77.198;2023-08-20T09:00:59;5.40;;;4.30;;
50104;SDS011;47690;39.202;-77.198;2023-08-20T09:03:40;5.47;;;4.60;;
50104;SDS011;47690;39.202;-77.198;2023-08-20T09:06:18;6.10;;;4.28;;
50104;SDS011;47690;39.202;-77.198;2023-08-20T09:09:12;5.07;;;4.10;;
50104;SDS011;47690;39.202;-77.198;2023-08-20T09:12:12;4.75;;;3.92;;
50104;SDS011;47690;39.202;-77.198;2023-08-20T09:14:51;5.28;;;4.03;;
50104;SDS011;47690;39.202;-77.198;2023-08-20T09:18:00;5.50;;;4.13;;
50104;SDS011;47690;39.202;-77.198;2023-08-20T09:21:20;4.90;;;3.70;;
50104;SDS011;47690;39.202;-77.198;2023-08-20T09:24:05;5.10;;;4.13;;
50104;SDS011;47690;39.202;-77.198;2023-08-20T09:30:20;4.72;;;3.92;;
50104;SDS011;47690;39.202;-77.198;2023-08-20T09:35:51;4.80;;;3.97;;
50104;SDS011;47690;39.202;-77.198;2023-08-20T09:38:55;5.28;;;3.95;;
50104;SDS011;47690;39.202;-77.198;2023-08-20T09:42:03;5.00;;;4.20;;
50104;SDS011;47690;39.202;-77.198;2023-08-20T09:44:49;5.55;;;4.03;;
50104;SDS011;47690;39.202;-77.198;2023-08-20T09:47:29;6.18;;;4.90;;
50104;SDS011;47690;39.202;-77.198;2023-08-20T09:53:53;7.05;;;4.85;;
50104;SDS011;47690;39.202;-77.198;2023-08-20T09:57:02;5.95;;;4.57;;
50104;SDS011;47690;39.202;-77.198;2023-08-20T10:00:11;5.78;;;4.38;;
50104;SDS011;47690;39.202;-77.198;2023-08-20T10:04:24;6.30;;;4.50;;
50104;SDS011;47690;39.202;-77.198;2023-08-20T10:07:48;5.68;;;4.32;;
50104;SDS011;47690;39.202;-77.198;2023-08-20T10:11:12;5.90;;;4.43;;
50104;SDS011;47690;39.202;-77.198;2023-08-20T10:14:52;5.88;;;4.57;;
50104;SDS011;47690;39.202;-77.198;2023-08-20T10:18:23;6.07;;;4.47;;
50104;SDS011;47690;39.202;-77.198;2023-08-20T10:21:32;5.60;;;4.35;;
50104;SDS011;47690;39.202;-77.198;2023-08-20T10:24:51;4.93;;;4.05;;
50104;SDS011;47690;39.202;-77.198;2023-08-20T10:27:52;5.72;;;4.35;;
50104;SDS011;47690;39.202;-77.198;2023-08-20T10:31:16;5.25;;;4.10;;
50104;SDS011;47690;39.202;-77.198;2023-08-20T10:33:54;6.55;;;4.50;;
50104;SDS011;47690;39.202;-77.198;2023-08-20T10:36:54;5.93;;;4.28;;
50104;SDS011;47690;39.202;-77.198;2023-08-20T10:40:52;6.70;;;4.80;;
50104;SDS011;47690;39.202;-77.198;2023-08-20T10:43:49;7.90;;;5.18;;
50104;SDS011;47690;39.202;-77.198;2023-08-20T10:46:56;6.70;;;4.95;;
50104;SDS011;47690;39.202;-77.198;2023-08-20T10:49:56;6.50;;;4.93;;
50104;SDS011;47690;39.202;-77.198;2023-08-20T10:52:59;5.43;;;4.32;;
50104;SDS011;47690;39.202;-77.198;2023-08-20T10:56:19;6.45;;;4.18;;
50104;SDS011;47690;39.202;-77.198;2023-08-20T11:03:29;5.60;;;4.28;;
50104;SDS011;47690;39.202;-77.198;2023-08-20T11:07:13;5.50;;;4.40;;
50104;SDS011;47690;39.202;-77.198;2023-08-20T11:11:27;5.25;;;4.00;;
50104;SDS011;47690;39.202;-77.198;2023-08-20T11:15:10;5.80;;;4.75;;
50104;SDS011;47690;39.202;-77.198;2023-08-20T11:30:58;5.18;;;4.13;;
50104;SDS011;47690;39.202;-77.198;2023-08-20T11:34:42;4.80;;;3.92;;
50104;SDS011;47690;39.202;-77.198;2023-08-20T11:37:43;5.45;;;4.25;;
50104;SDS011;47690;39.202;-77.198;2023-08-20T11:41:40;5.25;;;4.47;;
50104;SDS011;47690;39.202;-77.198;2023-08-20T11:45:25;5.60;;;4.07;;
50104;SDS011;47690;39.202;-77.198;2023-08-20T11:48:22;5.32;;;4.10;;
50104;SDS011;47690;39.202;-77.198;2023-08-20T11:51:36;5.78;;;3.88;;
50104;SDS011;47690;39.202;-77.198;2023-08-20T11:54:44;5.50;;;4.05;;
50104;SDS011;47690;39.202;-77.198;2023-08-20T11:57:38;5.32;;;4.13;;
50104;SDS011;47690;39.202;-77.198;2023-08-20T12:00:41;6.47;;;4.90;;
50104;SDS011;47690;39.202;-77.198;2023-08-20T12:07:35;5.28;;;3.85;;
50104;SDS011;47690;39.202;-77.198;2023-08-20T12:10:44;6.20;;;4.75;;
50104;SDS011;47690;39.202;-77.198;2023-08-20T12:14:32;8.13;;;5.13;;
50104;SDS011;47690;39.202;-77.198;2023-08-20T12:17:18;6.63;;;5.18;;
50104;SDS011;47690;39.202;-77.198;2023-08-20T12:20:41;6.72;;;5.10;;
50104;SDS011;47690;39.202;-77.198;2023-08-20T12:23:48;6.38;;;5.13;;
50104;SDS011;47690;39.202;-77.198;2023-08-20T12:26:52;6.95;;;5.20;;
50104;SDS011;47690;39.202;-77.198;2023-08-20T12:30:53;7.70;;;5.32;;
50104;SDS011;47690;39.202;-77.198;2023-08-20T12:34:48;8.65;;;5.65;;
50104;SDS011;47690;39.202;-77.198;2023-08-20T12:37:57;7.85;;;5.82;;
50104;SDS011;47690;39.202;-77.198;2023-08-20T12:41:03;7.75;;;5.80;;
50104;SDS011;47690;39.202;-77.198;2023-08-20T12:44:20;6.93;;;5.63;;
50104;SDS011;47690;39.202;-77.198;2023-08-20T12:47:48;8.38;;;5.88;;
50104;SDS011;47690;39.202;-77.198;2023-08-20T12:51:29;6.80;;;5.30;;
50104;SDS011;47690;39.202;-77.198;2023-08-20T12:54:24;7.82;;;6.32;;
50104;SDS011;47690;39.202;-77.198;2023-08-20T12:57:30;10.00;;;6.40;;
50104;SDS011;47690;39.202;-77.198;2023-08-20T13:00:15;8.32;;;6.18;;
50104;SDS011;47690;39.202;-77.198;2023-08-20T13:03:28;10.02;;;7.00;;
50104;SDS011;47690;39.202;-77.198;2023-08-20T13:06:42;9.00;;;6.40;;
50104;SDS011;47690;39.202;-77.198;2023-08-20T13:10:04;7.83;;;6.23;;
50104;SDS011;47690;39.202;-77.198;2023-08-20T13:13:20;7.60;;;6.15;;
50104;SDS011;47690;39.202;-77.198;2023-08-20T13:16:56;7.35;;;5.97;;
50104;SDS011;47690;39.202;-77.198;2023-08-20T13:20:39;8.27;;;6.18;;
50104;SDS011;47690;39.202;-77.198;2023-08-20T13:24:34;8.63;;;6.68;;
50104;SDS011;47690;39.202;-77.198;2023-08-20T13:28:06;8.57;;;6.88;;
50104;SDS011;47690;39.202;-77.198;2023-08-20T13:31:46;7.78;;;6.03;;
50104;SDS011;47690;39.202;-77.198;2023-08-20T13:35:04;8.93;;;7.00;;
50104;SDS011;47690;39.202;-77.198;2023-08-20T13:39:41;8.00;;;6.60;;
50104;SDS011;47690;39.202;-77.198;2023-08-20T13:42:48;8.48;;;6.63;;
50104;SDS011;47690;39.202;-77.198;2023-08-20T13:46:07;10.77;;;7.38;;
50104;SDS011;47690;39.202;-77.198;2023-08-20T13:49:26;8.85;;;6.70;;
50104;SDS011;47690;39.202;-77.198;2023-08-20T13:52:20;9.50;;;6.65;;
50104;SDS011;47690;39.202;-77.198;2023-08-20T13:55:18;10.18;;;7.18;;
50104;SDS011;47690;39.202;-77.198;2023-08-20T13:58:18;8.25;;;7.05;;
50104;SDS011;47690;39.202;-77.198;2023-08-20T14:01:12;8.18;;;6.53;;
50104;SDS011;47690;39.202;-77.198;2023-08-20T14:04:04;8.70;;;6.15;;
50104;SDS011;47690;39.202;-77.198;2023-08-20T14:07:02;9.07;;;7.38;;
50104;SDS011;47690;39.202;-77.198;2023-08-20T14:09:58;8.40;;;6.88;;
50104;SDS011;47690;39.202;-77.198;2023-08-20T14:12:44;9.73;;;7.50;;
50104;SDS011;47690;39.202;-77.198;2023-08-20T14:15:22;9.40;;;7.22;;
50104;SDS011;47690;39.202;-77.198;2023-08-20T14:22:12;9.23;;;7.25;;
50104;SDS011;47690;39.202;-77.198;2023-08-20T14:24:50;9.32;;;6.80;;
50104;SDS011;47690;39.202;-77.198;2023-08-20T14:27:27;8.80;;;7.03;;
50104;SDS011;47690;39.202;-77.198;2023-08-20T14:30:00;8.23;;;6.85;;
50104;SDS011;47690;39.202;-77.198;2023-08-20T14:32:33;8.23;;;6.63;;
50104;SDS011;47690;39.202;-77.198;2023-08-20T14:35:13;9.77;;;6.55;;
50104;SDS011;47690;39.202;-77.198;2023-08-20T14:38:12;7.97;;;6.78;;
50104;SDS011;47690;39.202;-77.198;2023-08-20T14:40:46;8.17;;;6.67;;
50104;SDS011;47690;39.202;-77.198;2023-08-20T14:43:46;8.32;;;6.57;;
50104;SDS011;47690;39.202;-77.198;2023-08-20T14:46:19;9.77;;;7.13;;
50104;SDS011;47690;39.202;-77.198;2023-08-20T14:48:49;8.85;;;6.57;;
50104;SDS011;47690;39.202;-77.198;2023-08-20T14:51:23;8.00;;;7.15;;
50104;SDS011;47690;39.202;-77.198;2023-08-20T14:53:56;8.50;;;6.40;;
50104;SDS011;47690;39.202;-77.198;2023-08-20T14:56:28;7.50;;;6.35;;
50104;SDS011;47690;39.202;-77.198;2023-08-20T14:58:59;9.07;;;6.72;;
50104;SDS011;47690;39.202;-77.198;2023-08-20T15:01:30;8.60;;;6.75;;
50104;SDS011;47690;39.202;-77.198;2023-08-20T15:04:01;8.27;;;6.20;;
50104;SDS011;47690;39.202;-77.198;2023-08-20T15:06:33;8.23;;;6.80;;
50104;SDS011;47690;39.202;-77.198;2023-08-20T15:09:06;7.43;;;6.38;;
50104;SDS011;47690;39.202;-77.198;2023-08-20T15:12:01;8.02;;;6.32;;
50104;SDS011;47690;39.202;-77.198;2023-08-20T15:14:42;8.93;;;6.55;;
50104;SDS011;47690;39.202;-77.198;2023-08-20T15:17:16;8.25;;;6.60;;
50104;SDS011;47690;39.202;-77.198;2023-08-20T15:19:47;8.95;;;6.40;;
50104;SDS011;47690;39.202;-77.198;2023-08-20T15:22:18;8.80;;;6.95;;
50104;SDS011;47690;39.202;-77.198;2023-08-20T15:24:53;8.00;;;6.68;;
50104;SDS011;47690;39.202;-77.198;2023-08-20T15:27:28;7.25;;;6.05;;
50104;SDS011;47690;39.202;-77.198;2023-08-20T15:30:04;7.93;;;6.45;;
50104;SDS011;47690;39.202;-77.198;2023-08-20T15:32:41;7.70;;;6.53;;
50104;SDS011;47690;39.202;-77.198;2023-08-20T15:35:17;8.00;;;6.45;;
50104;SDS011;47690;39.202;-77.198;2023-08-20T15:40:22;8.93;;;6.63;;
50104;SDS011;47690;39.202;-77.198;2023-08-20T15:43:17;8.68;;;6.38;;
50104;SDS011;47690;39.202;-77.198;2023-08-20T15:45:50;7.53;;;6.20;;
50104;SDS011;47690;39.202;-77.198;2023-08-20T15:48:23;7.93;;;6.45;;
50104;SDS011;47690;39.202;-77.198;2023-08-20T15:50:54;8.02;;;6.47;;
50104;SDS011;47690;39.202;-77.198;2023-08-20T15:53:26;8.40;;;6.10;;
50104;SDS011;47690;39.202;-77.198;2023-08-20T15:56:08;8.25;;;6.53;;
50104;SDS011;47690;39.202;-77.198;2023-08-20T16:00:07;9.15;;;6.10;;
50104;SDS011;47690;39.202;-77.198;2023-08-20T16:02:50;7.57;;;6.18;;
50104;SDS011;47690;39.202;-77.198;2023-08-20T16:05:22;9.55;;;6.95;;
50104;SDS011;47690;39.202;-77.198;2023-08-20T16:08:01;8.32;;;6.90;;
50104;SDS011;47690;39.202;-77.198;2023-08-20T16:10:42;8.77;;;7.05;;
50104;SDS011;47690;39.202;-77.198;2023-08-20T16:13:40;9.38;;;6.00;;
50104;SDS011;47690;39.202;-77.198;2023-08-20T16:16:19;8.03;;;6.40;;
50104;SDS011;47690;39.202;-77.198;2023-08-20T16:19:02;8.43;;;6.60;;
50104;SDS011;47690;39.202;-77.198;2023-08-20T16:21:48;7.45;;;6.03;;
50104;SDS011;47690;39.202;-77.198;2023-08-20T16:24:19;8.75;;;6.55;;
50104;SDS011;47690;39.202;-77.198;2023-08-20T16:26:54;8.15;;;6.70;;
50104;SDS011;47690;39.202;-77.198;2023-08-20T16:30:17;7.40;;;6.18;;
50104;SDS011;47690;39.202;-77.198;2023-08-20T16:32:58;8.80;;;6.50;;
50104;SDS011;47690;39.202;-77.198;2023-08-20T16:35:30;8.07;;;6.40;;
50104;SDS011;47690;39.202;-77.198;2023-08-20T16:38:10;8.75;;;6.93;;
50104;SDS011;47690;39.202;-77.198;2023-08-20T16:40:47;8.60;;;6.70;;
50104;SDS011;47690;39.202;-77.198;2023-08-20T16:43:41;9.15;;;6.75;;
50104;SDS011;47690;39.202;-77.198;2023-08-20T16:46:28;7.72;;;6.47;;
50104;SDS011;47690;39.202;-77.198;2023-08-20T16:52:42;9.30;;;6.53;;
50104;SDS011;47690;39.202;-77.198;2023-08-20T16:55:54;7.15;;;6.22;;
50104;SDS011;47690;39.202;-77.198;2023-08-20T16:58:28;9.23;;;6.18;;
50104;SDS011;47690;39.202;-77.198;2023-08-20T17:00:58;7.78;;;6.35;;
50104;SDS011;47690;39.202;-77.198;2023-08-20T17:03:41;7.35;;;6.25;;
50104;SDS011;47690;39.202;-77.198;2023-08-20T17:06:16;9.15;;;6.25;;
50104;SDS011;47690;39.202;-77.198;2023-08-20T17:08:56;9.82;;;7.15;;
50104;SDS011;47690;39.202;-77.198;2023-08-20T17:11:29;8.88;;;6.57;;
50104;SDS011;47690;39.202;-77.198;2023-08-20T17:14:08;7.35;;;6.30;;
50104;SDS011;47690;39.202;-77.198;2023-08-20T17:16:53;8.88;;;6.22;;
50104;SDS011;47690;39.202;-77.198;2023-08-20T17:19:44;9.13;;;6.53;;
50104;SDS011;47690;39.202;-77.198;2023-08-20T17:22:24;7.97;;;6.68;;
50104;SDS011;47690;39.202;-77.198;2023-08-20T17:24:56;7.90;;;6.18;;
50104;SDS011;47690;39.202;-77.198;2023-08-20T17:28:09;8.65;;;6.50;;
50104;SDS011;47690;39.202;-77.198;2023-08-20T17:30:40;7.68;;;6.53;;
50104;SDS011;47690;39.202;-77.198;2023-08-20T17:33:16;9.43;;;7.05;;
50104;SDS011;47690;39.202;-77.198;2023-08-20T17:35:56;8.63;;;7.30;;
50104;SDS011;47690;39.202;-77.198;2023-08-20T17:38:41;8.17;;;7.07;;
50104;SDS011;47690;39.202;-77.198;2023-08-20T17:41:16;7.93;;;6.68;;
50104;SDS011;47690;39.202;-77.198;2023-08-20T17:43:49;6.95;;;6.15;;